Time;durP1;ratioP1;P1;durP2;ratioP2;P2;SDS_P1;SDS_P2;PMS_P1;PMS_P2;Temp;Humidity;BMP_temperature;BMP_pressure;BME280_temperature;BME280_humidity;BME280_pressure;Samples;Min_cycle;Max_cycle;Signal;HPM_P1;HPM_P2
2022/07/16 00:02:39;;;;;;;0.85;0.85;;;13.00;1.00;;;;;;5053957;28;34241;-76
2022/07/16 00:05:06;;;;;;;1.90;0.75;;;13.00;1.00;;;;;;5130508;27;36347;-75
2022/07/16 00:07:32;;;;;;;0.80;0.80;;;13.00;1.00;;;;;;5130768;27;35193;-75
2022/07/16 00:09:58;;;;;;;1.83;1.05;;;12.90;1.00;;;;;;5133805;27;34225;-75
2022/07/16 00:12:26;;;;;;;0.80;0.80;;;12.90;1.00;;;;;;5060113;28;34425;-75
2022/07/16 00:15:17;;;;;;;1.40;0.90;;;12.90;1.00;;;;;;5121214;27;36009;-75
2022/07/16 00:17:43;;;;;;;0.75;0.75;;;12.80;4.50;;;;;;5132871;27;34082;-75
2022/07/16 00:20:10;;;;;;;1.45;0.90;;;12.80;1.00;;;;;;5115142;27;34116;-75
2022/07/16 00:22:35;;;;;;;1.67;0.90;;;12.70;1.00;;;;;;5130001;27;34487;-75
2022/07/16 00:25:02;;;;;;;1.02;0.93;;;12.70;1.00;;;;;;5042592;28;34188;-75
2022/07/16 00:27:28;;;;;;;0.95;0.82;;;12.60;1.00;;;;;;5043153;28;34282;-75
2022/07/16 00:29:53;;;;;;;0.70;0.70;;;12.60;1.00;;;;;;5112073;27;34120;-75
2022/07/16 00:32:19;;;;;;;2.15;1.15;;;12.60;1.10;;;;;;5112272;27;34268;-75
2022/07/16 00:34:45;;;;;;;1.92;0.90;;;12.60;1.20;;;;;;5123615;27;35776;-75
2022/07/16 00:37:11;;;;;;;1.00;0.73;;;12.60;1.10;;;;;;5132742;27;34199;-75
2022/07/16 00:39:37;;;;;;;2.28;0.90;;;12.50;1.30;;;;;;5132274;27;34123;-75
2022/07/16 00:42:03;;;;;;;0.70;0.70;;;12.40;1.50;;;;;;5133181;27;34582;-75
2022/07/16 00:44:29;;;;;;;4.07;0.65;;;12.40;1.50;;;;;;5115735;27;36480;-75
2022/07/16 00:46:55;;;;;;;1.05;0.88;;;12.30;1.90;;;;;;5121768;27;34718;-75
2022/07/16 00:49:21;;;;;;;1.00;0.90;;;12.30;1.90;;;;;;5042890;28;34294;-75
2022/07/16 00:51:52;;;;;;;1.65;0.82;;;12.20;1.90;;;;;;5161303;27;34479;-75
2022/07/16 00:54:19;;;;;;;1.17;0.90;;;12.20;2.70;;;;;;5124185;27;36201;-75
2022/07/16 00:56:48;;;;;;;1.17;0.98;;;12.10;2.20;;;;;;5152998;27;34129;-74
2022/07/16 00:59:15;;;;;;;1.20;0.70;;;12.10;2.10;;;;;;5133827;27;34257;-75
2022/07/16 01:01:41;;;;;;;0.93;0.80;;;12.10;2.40;;;;;;5140552;27;34205;-75
2022/07/16 01:04:10;;;;;;;1.92;1.00;;;12.00;2.30;;;;;;5155538;27;36354;-75
2022/07/16 01:06:36;;;;;;;2.05;0.75;;;12.00;2.40;;;;;;5139796;27;34390;-75
2022/07/16 01:09:02;;;;;;;1.67;0.90;;;11.90;2.50;;;;;;5146471;27;34416;-75
2022/07/16 01:11:31;;;;;;;0.80;0.80;;;11.90;2.70;;;;;;5172676;27;34790;-75
2022/07/16 01:13:58;;;;;;;1.13;1.00;;;11.90;3.10;;;;;;5121199;27;35515;-75
2022/07/16 01:16:24;;;;;;;1.02;1.00;;;11.80;2.60;;;;;;5160873;27;34091;-75
2022/07/16 01:18:50;;;;;;;2.25;1.10;;;11.80;2.70;;;;;;5166205;27;34215;-75
2022/07/16 01:21:16;;;;;;;1.25;1.00;;;11.80;2.70;;;;;;5122324;27;34587;-75
2022/07/16 01:23:45;;;;;;;3.92;1.02;;;11.70;2.90;;;;;;5174346;27;35888;-75
2022/07/16 01:26:11;;;;;;;2.10;0.75;;;11.70;2.90;;;;;;5132085;27;34076;-75
2022/07/16 01:28:37;;;;;;;2.25;0.85;;;11.70;2.90;;;;;;5160958;27;34079;-75
2022/07/16 01:31:03;;;;;;;1.25;0.93;;;11.50;3.10;;;;;;5120908;27;34409;-75
2022/07/16 01:33:33;;;;;;;1.77;0.80;;;11.50;3.10;;;;;;5126218;27;35715;-76
2022/07/16 01:36:05;;;;;;;1.08;0.95;;;11.50;3.90;;;;;;5147676;27;34212;-75
2022/07/16 01:38:31;;;;;;;0.85;0.70;;;11.40;4.10;;;;;;5126066;27;34332;-74
2022/07/16 01:40:58;;;;;;;1.58;0.80;;;11.40;3.40;;;;;;5138434;27;34272;-75
2022/07/16 01:43:29;;;;;;;1.08;0.98;;;11.50;3.60;;;;;;5125817;27;34517;-75
2022/07/16 01:45:57;;;;;;;2.08;1.00;;;11.40;4.50;;;;;;5128890;27;34309;-75
2022/07/16 01:48:24;;;;;;;1.70;1.00;;;11.40;3.50;;;;;;5127816;27;34198;-75
2022/07/16 01:50:51;;;;;;;1.10;0.90;;;11.40;3.70;;;;;;5145747;27;34116;-75
2022/07/16 01:53:17;;;;;;;0.85;0.85;;;11.40;3.70;;;;;;5133326;27;34327;-75
2022/07/16 01:55:44;;;;;;;1.08;0.85;;;11.40;3.60;;;;;;5120563;27;34165;-75
2022/07/16 01:58:12;;;;;;;0.80;0.80;;;11.40;3.80;;;;;;5061494;28;34008;-75
2022/07/16 02:00:40;;;;;;;1.60;1.10;;;11.40;4.00;;;;;;5131770;27;33749;-75
2022/07/16 02:03:07;;;;;;;1.05;0.90;;;11.30;4.00;;;;;;5046857;28;35461;-75
2022/07/16 02:05:33;;;;;;;3.03;1.02;;;11.30;3.90;;;;;;5111046;27;34202;-75
2022/07/16 02:07:59;;;;;;;1.48;0.95;;;11.30;4.00;;;;;;5111739;27;34093;-75
2022/07/16 02:10:25;;;;;;;0.80;0.80;;;11.20;3.90;;;;;;5021994;28;34169;-75
2022/07/16 02:12:51;;;;;;;1.42;1.02;;;11.20;4.00;;;;;;5123924;27;36320;-75
2022/07/16 02:15:17;;;;;;;1.02;0.88;;;11.20;4.10;;;;;;5124201;27;34369;-75
2022/07/16 02:17:43;;;;;;;0.80;0.80;;;11.10;4.40;;;;;;5021874;28;34125;-75
2022/07/16 02:20:11;;;;;;;1.42;1.00;;;11.00;4.20;;;;;;5089869;28;34201;-75
2022/07/16 02:22:37;;;;;;;2.65;0.90;;;11.00;4.40;;;;;;5020460;28;34324;-76
2022/07/16 02:25:05;;;;;;;1.95;1.00;;;11.00;4.50;;;;;;5123413;27;34141;-75
2022/07/16 02:27:31;;;;;;;1.60;0.77;;;11.00;4.50;;;;;;5021341;28;34322;-75
2022/07/16 02:29:58;;;;;;;1.10;1.00;;;10.90;4.50;;;;;;5021355;28;34468;-75
2022/07/16 02:32:24;;;;;;;3.30;1.10;;;10.90;4.60;;;;;;5123808;27;35883;-74
2022/07/16 02:34:50;;;;;;;1.20;1.02;;;10.80;4.70;;;;;;5107219;27;34044;-75
2022/07/16 02:37:16;;;;;;;1.10;0.98;;;10.80;4.60;;;;;;5126644;27;34246;-75
2022/07/16 02:39:41;;;;;;;1.00;1.00;;;10.80;4.80;;;;;;5107108;27;34311;-75
2022/07/16 02:42:07;;;;;;;1.70;1.00;;;10.80;4.80;;;;;;5143805;27;35888;-75
2022/07/16 02:44:33;;;;;;;2.08;1.08;;;10.70;5.00;;;;;;5145043;27;34011;-75
2022/07/16 02:47:00;;;;;;;1.77;1.10;;;10.70;5.10;;;;;;5161859;27;33999;-75
2022/07/16 02:49:26;;;;;;;1.20;1.10;;;10.70;5.00;;;;;;5106053;27;34060;-74
2022/07/16 02:51:52;;;;;;;2.40;0.98;;;10.60;5.00;;;;;;5127179;27;35838;-75
2022/07/16 02:54:18;;;;;;;4.82;1.20;;;10.60;5.20;;;;;;5091659;27;35999;-75
2022/07/16 02:56:44;;;;;;;1.33;1.10;;;10.60;5.30;;;;;;5026432;28;34312;-75
2022/07/16 02:59:09;;;;;;;3.42;1.38;;;10.60;5.30;;;;;;5123500;27;34461;-75
2022/07/16 03:01:35;;;;;;;1.85;1.10;;;10.50;5.40;;;;;;5106424;27;36012;-75
2022/07/16 03:04:01;;;;;;;1.13;1.02;;;10.50;5.40;;;;;;5123299;27;34181;-75
2022/07/16 03:06:27;;;;;;;0.90;0.90;;;10.50;5.50;;;;;;5130250;27;34158;-75
2022/07/16 03:08:53;;;;;;;2.58;1.10;;;10.50;5.50;;;;;;5144071;27;34161;-75
2022/07/16 03:11:19;;;;;;;1.83;0.90;;;10.50;5.60;;;;;;5098982;27;35602;-75
2022/07/16 03:13:45;;;;;;;3.35;0.90;;;10.50;5.60;;;;;;5089262;28;34087;-75
2022/07/16 03:16:11;;;;;;;1.38;1.10;;;10.50;5.60;;;;;;5088995;28;34025;-75
2022/07/16 03:18:37;;;;;;;0.98;0.90;;;10.40;5.60;;;;;;5036539;28;34212;-75
2022/07/16 03:21:03;;;;;;;1.13;1.02;;;10.40;6.30;;;;;;5104381;27;36368;-75
2022/07/16 03:23:29;;;;;;;1.17;1.00;;;10.40;5.80;;;;;;5071945;28;34510;-75
2022/07/16 03:25:55;;;;;;;1.60;0.80;;;10.40;5.90;;;;;;5089346;28;34368;-75
2022/07/16 03:28:21;;;;;;;1.08;1.00;;;10.30;6.30;;;;;;5091598;27;34173;-75
2022/07/16 03:30:47;;;;;;;1.00;1.00;;;10.30;5.90;;;;;;5104446;27;36378;-75
2022/07/16 03:33:13;;;;;;;3.10;1.30;;;10.30;5.90;;;;;;5107826;27;34112;-76
2022/07/16 03:35:38;;;;;;;1.65;1.20;;;10.30;6.00;;;;;;5092376;28;34013;-75
2022/07/16 03:40:50;;;;;;;1.10;1.00;;;10.30;6.10;;;;;;5094484;27;34375;-75
2022/07/16 03:43:16;;;;;;;1.30;1.02;;;10.30;6.20;;;;;;5112614;27;34301;-76
2022/07/16 03:45:42;;;;;;;1.45;1.17;;;10.30;6.10;;;;;;5147510;27;34422;-75
2022/07/16 03:48:08;;;;;;;1.00;0.90;;;10.30;6.20;;;;;;5127341;27;34459;-75
2022/07/16 03:50:34;;;;;;;1.20;0.98;;;10.30;6.10;;;;;;5091786;27;35479;-76
2022/07/16 03:53:00;;;;;;;3.00;1.10;;;10.30;6.20;;;;;;5077270;27;34130;-75
2022/07/16 03:55:26;;;;;;;1.40;1.20;;;10.30;6.20;;;;;;5148147;27;34083;-76
2022/07/16 03:57:52;;;;;;;1.30;1.10;;;10.30;6.30;;;;;;5112761;27;34261;-75
2022/07/16 04:00:18;;;;;;;1.85;1.02;;;10.30;6.30;;;;;;5096155;27;35801;-75
2022/07/16 04:02:43;;;;;;;2.97;1.10;;;10.30;6.30;;;;;;5103643;27;34245;-75
2022/07/16 04:05:10;;;;;;;1.20;1.08;;;10.30;6.30;;;;;;5126364;27;34096;-75
2022/07/16 04:07:36;;;;;;;1.08;1.00;;;10.30;6.40;;;;;;5092165;28;34388;-75
2022/07/16 04:10:02;;;;;;;2.10;1.48;;;10.30;6.40;;;;;;5108199;27;35722;-75
2022/07/16 04:12:28;;;;;;;1.58;0.98;;;10.30;6.50;;;;;;5026848;28;34080;-76
2022/07/16 04:14:54;;;;;;;0.90;0.90;;;10.30;6.50;;;;;;5092210;27;34202;-75
2022/07/16 04:17:20;;;;;;;1.20;1.10;;;10.30;6.50;;;;;;5092016;28;34150;-75
2022/07/16 04:19:46;;;;;;;3.20;1.10;;;10.30;6.60;;;;;;5022541;28;34123;-75
2022/07/16 04:22:12;;;;;;;1.33;1.20;;;10.30;6.50;;;;;;5125950;27;34173;-76
2022/07/16 04:24:38;;;;;;;2.20;1.00;;;10.30;6.60;;;;;;5038979;28;34063;-75
2022/07/16 04:27:04;;;;;;;1.20;1.10;;;10.20;6.50;;;;;;5148607;27;35469;-76
2022/07/16 04:29:30;;;;;;;2.25;1.10;;;10.30;6.70;;;;;;5110581;27;34083;-76
2022/07/16 04:31:55;;;;;;;4.13;1.30;;;10.20;6.60;;;;;;5136550;27;34970;-76
2022/07/16 04:34:21;;;;;;;1.92;1.10;;;10.20;6.80;;;;;;5091800;28;34397;-75
2022/07/16 04:36:47;;;;;;;1.02;1.02;;;10.20;6.80;;;;;;5021523;28;34264;-75
2022/07/16 04:39:14;;;;;;;0.98;0.95;;;10.20;6.70;;;;;;5097919;27;35459;-75
2022/07/16 04:41:39;;;;;;;1.75;1.20;;;10.30;6.80;;;;;;5103208;27;34487;-76
2022/07/16 04:44:05;;;;;;;1.30;1.20;;;10.30;7.30;;;;;;5128290;27;34216;-75
2022/07/16 04:46:31;;;;;;;1.70;1.20;;;10.30;6.90;;;;;;5111512;27;34210;-75
2022/07/16 04:48:57;;;;;;;2.40;1.88;;;10.40;7.00;;;;;;5031984;28;35108;-75
2022/07/16 04:51:23;;;;;;;1.60;1.23;;;10.40;6.90;;;;;;5091046;27;34137;-75
2022/07/16 04:53:49;;;;;;;1.75;1.13;;;10.50;7.00;;;;;;5025673;28;34074;-76
2022/07/16 04:56:15;;;;;;;1.45;1.30;;;10.50;7.00;;;;;;5042507;28;34432;-76
2022/07/16 04:58:41;;;;;;;1.30;1.20;;;10.50;7.00;;;;;;5042028;28;34293;-75
2022/07/16 05:01:07;;;;;;;1.15;1.13;;;10.50;7.10;;;;;;5042048;28;34103;-75
2022/07/16 05:03:33;;;;;;;2.13;1.00;;;10.50;7.20;;;;;;5136854;27;34264;-75
2022/07/16 05:05:58;;;;;;;1.75;1.38;;;10.50;7.20;;;;;;5048556;27;34311;-75
2022/07/16 05:08:24;;;;;;;1.88;1.30;;;10.60;7.20;;;;;;5042463;28;34314;-76
2022/07/16 05:10:50;;;;;;;1.25;1.15;;;10.60;7.20;;;;;;5111325;27;34419;-75
2022/07/16 05:13:16;;;;;;;1.55;1.45;;;10.70;7.40;;;;;;5126532;27;34483;-76
2022/07/16 05:15:42;;;;;;;2.78;1.63;;;10.80;7.40;;;;;;5124132;27;34249;-75
2022/07/16 05:18:09;;;;;;;1.30;1.20;;;10.80;7.40;;;;;;5124815;27;35570;-75
2022/07/16 05:20:35;;;;;;;1.45;1.20;;;10.90;8.00;;;;;;5107339;27;34159;-75
2022/07/16 05:23:02;;;;;;;2.45;1.50;;;11.00;7.50;;;;;;5022290;28;34434;-76
2022/07/16 05:25:28;;;;;;;2.05;1.50;;;11.30;7.50;;;;;;5127895;27;34220;-75
2022/07/16 05:27:54;;;;;;;2.28;1.52;;;11.90;6.90;;;;;;5129793;27;36577;-75
2022/07/16 05:30:19;;;;;;;1.40;1.30;;;12.90;5.70;;;;;;5094122;27;34156;-75
2022/07/16 05:32:45;;;;;;;1.30;1.20;;;14.00;4.40;;;;;;5110757;27;34138;-76
2022/07/16 05:35:14;;;;;;;7.20;1.65;;;15.20;3.00;;;;;;5041710;28;34178;-76
2022/07/16 05:37:40;;;;;;;1.48;1.38;;;16.30;1.90;;;;;;5061028;27;34430;-76
2022/07/16 05:40:08;;;;;;;3.10;1.60;;;17.30;1.00;;;;;;5090937;27;34061;-76
2022/07/16 05:42:34;;;;;;;1.55;1.40;;;18.10;1.00;;;;;;5145111;27;34224;-76
2022/07/16 05:45:01;;;;;;;1.55;1.13;;;18.90;1.00;;;;;;5053750;28;33872;-76
2022/07/16 05:47:27;;;;;;;1.27;1.17;;;19.70;1.00;;;;;;5040271;28;35527;-76
2022/07/16 05:49:53;;;;;;;1.48;1.02;;;20.30;1.00;;;;;;5106693;27;35815;-76
2022/07/16 05:52:19;;;;;;;1.58;1.10;;;20.90;1.00;;;;;;5126584;27;34277;-77
2022/07/16 05:54:45;;;;;;;1.73;1.15;;;21.40;1.00;;;;;;5107095;27;34147;-76
2022/07/16 05:57:10;;;;;;;2.83;1.20;;;21.90;1.00;;;;;;5100069;27;35449;-76
2022/07/16 05:59:37;;;;;;;3.03;1.13;;;22.30;1.00;;;;;;5107567;27;34223;-76
2022/07/16 06:02:03;;;;;;;2.13;1.05;;;22.80;1.00;;;;;;5105112;27;34037;-76
2022/07/16 06:04:29;;;;;;;1.83;1.20;;;23.00;1.00;;;;;;5128575;27;35297;-76
2022/07/16 06:06:56;;;;;;;1.20;1.10;;;23.00;1.00;;;;;;5042190;27;35470;-76
2022/07/16 06:09:22;;;;;;;1.63;1.20;;;23.20;1.00;;;;;;5078667;27;34286;-77
2022/07/16 06:11:48;;;;;;;1.92;1.10;;;23.50;1.00;;;;;;5110520;27;34455;-76
2022/07/16 06:14:14;;;;;;;2.17;0.88;;;23.70;1.00;;;;;;5117164;27;34086;-76
2022/07/16 06:16:41;;;;;;;1.58;0.90;;;23.90;1.00;;;;;;5109797;27;35860;-77
2022/07/16 06:19:07;;;;;;;2.35;1.02;;;24.00;1.00;;;;;;5036796;28;35732;-76
2022/07/16 06:21:33;;;;;;;3.40;1.10;;;24.20;1.00;;;;;;5158435;27;34273;-77
2022/07/16 06:24:00;;;;;;;1.08;0.98;;;24.40;1.00;;;;;;5035285;27;34179;-76
2022/07/16 06:26:26;;;;;;;2.25;1.05;;;24.40;1.00;;;;;;5138749;27;35710;-76
2022/07/16 06:28:52;;;;;;;0.90;0.90;;;24.80;1.00;;;;;;5063725;27;34158;-76
2022/07/16 06:31:18;;;;;;;1.20;1.10;;;25.10;1.00;;;;;;5150214;27;34359;-76
2022/07/16 06:33:43;;;;;;;2.22;1.30;;;25.50;1.00;;;;;;5050844;28;34234;-77
2022/07/16 06:36:09;;;;;;;3.60;1.45;;;25.80;1.00;;;;;;5113326;27;35366;-78
2022/07/16 06:38:35;;;;;;;0.95;0.90;;;26.10;1.00;;;;;;5043781;27;34227;-77
2022/07/16 06:41:02;;;;;;;3.20;1.10;;;26.20;1.00;;;;;;5107869;27;34123;-78
2022/07/16 06:43:28;;;;;;;1.35;0.95;;;26.20;1.00;;;;;;5114464;27;34410;-77
2022/07/16 06:45:54;;;;;;;1.85;1.02;;;26.40;1.00;;;;;;5145156;27;35912;-77
2022/07/16 06:48:20;;;;;;;1.20;0.93;;;26.30;1.00;;;;;;5093622;27;34396;-76
2022/07/16 06:50:46;;;;;;;2.00;1.20;;;26.40;1.00;;;;;;5039808;28;34241;-76
2022/07/16 06:53:12;;;;;;;1.08;0.90;;;26.60;1.00;;;;;;5067165;27;34538;-77
2022/07/16 06:55:38;;;;;;;2.47;1.33;;;26.90;1.00;;;;;;5076784;27;35524;-76
2022/07/16 06:58:04;;;;;;;3.55;1.10;;;27.20;1.00;;;;;;5032996;27;34080;-78
2022/07/16 07:00:30;;;;;;;2.47;1.10;;;27.10;1.00;;;;;;5089097;28;34169;-76
2022/07/16 07:02:56;;;;;;;0.80;0.80;;;26.80;1.00;;;;;;5119894;27;34377;-76
2022/07/16 07:05:23;;;;;;;2.25;1.00;;;26.80;1.00;;;;;;5117115;27;35553;-77
2022/07/16 07:07:52;;;;;;;3.03;0.90;;;26.90;1.00;;;;;;5133994;27;34225;-77
2022/07/16 07:10:19;;;;;;;0.95;0.90;;;26.90;1.00;;;;;;5112032;27;35276;-77
2022/07/16 07:12:46;;;;;;;1.63;1.35;;;27.10;1.00;;;;;;5128965;27;34267;-77
2022/07/16 07:15:12;;;;;;;4.55;1.02;;;27.10;1.00;;;;;;5125127;27;36465;-77
2022/07/16 07:17:37;;;;;;;1.63;1.00;;;27.10;1.00;;;;;;5109934;27;34330;-77
2022/07/16 07:20:06;;;;;;;2.55;1.17;;;26.70;1.00;;;;;;5086265;27;34860;-78
2022/07/16 07:22:33;;;;;;;2.28;1.00;;;26.50;1.00;;;;;;5114182;27;34354;-77
2022/07/16 07:24:59;;;;;;;2.13;1.05;;;26.50;1.00;;;;;;5144300;27;36016;-77
2022/07/16 07:27:25;;;;;;;2.65;1.23;;;26.60;1.00;;;;;;5056977;27;34081;-77
2022/07/16 07:29:50;;;;;;;3.00;1.30;;;26.40;1.00;;;;;;5124693;27;34216;-77
2022/07/16 07:32:17;;;;;;;3.22;1.33;;;26.20;1.00;;;;;;5101274;27;34086;-77
2022/07/16 07:34:44;;;;;;;1.55;1.10;;;26.50;1.00;;;;;;5055358;28;34224;-77
2022/07/16 07:37:10;;;;;;;4.00;1.27;;;26.70;1.00;;;;;;5129939;27;34256;-76
2022/07/16 07:39:36;;;;;;;1.50;1.40;;;26.90;1.00;;;;;;5112337;27;34307;-77
2022/07/16 07:42:02;;;;;;;3.88;1.30;;;27.00;1.00;;;;;;5115570;27;34672;-77
2022/07/16 07:44:29;;;;;;;3.55;1.23;;;26.80;1.00;;;;;;5046264;28;34484;-77
2022/07/16 07:46:55;;;;;;;6.00;1.38;;;26.70;1.00;;;;;;5115393;27;34428;-77
2022/07/16 07:49:20;;;;;;;5.47;1.70;;;26.70;1.00;;;;;;5144120;27;34116;-77
2022/07/16 07:51:46;;;;;;;2.72;1.13;;;26.80;1.00;;;;;;5115364;27;34722;-78
2022/07/16 07:54:12;;;;;;;5.25;1.58;;;26.70;1.00;;;;;;5072563;27;35136;-77
2022/07/16 07:56:38;;;;;;;4.15;1.40;;;27.00;1.00;;;;;;5132438;27;34355;-77
2022/07/16 07:59:05;;;;;;;2.95;1.17;;;27.20;1.00;;;;;;5091942;27;34156;-77
2022/07/16 08:01:31;;;;;;;1.50;1.20;;;27.30;1.00;;;;;;5035827;27;34135;-77
2022/07/16 08:03:57;;;;;;;1.90;1.10;;;27.10;1.00;;;;;;5111580;27;36506;-76
2022/07/16 08:06:23;;;;;;;2.60;1.38;;;27.10;1.00;;;;;;5138186;27;34523;-77
2022/07/16 08:08:49;;;;;;;5.45;1.25;;;27.50;1.00;;;;;;5148078;27;34145;-76
2022/07/16 08:11:15;;;;;;;1.23;1.13;;;27.80;1.00;;;;;;5104585;27;34492;-77
2022/07/16 08:13:42;;;;;;;2.22;1.00;;;28.00;1.00;;;;;;5141902;27;35858;-78
2022/07/16 08:16:09;;;;;;;5.00;1.02;;;28.20;1.00;;;;;;5088477;27;33998;-77
2022/07/16 08:18:36;;;;;;;1.70;1.10;;;28.50;1.00;;;;;;5071152;27;34310;-78
2022/07/16 08:21:03;;;;;;;3.70;1.30;;;28.80;1.00;;;;;;5091916;27;34308;-77
2022/07/16 08:26:17;;;;;;;3.58;1.17;;;29.00;1.00;;;;;;5048219;28;34175;-76
2022/07/16 08:28:44;;;;;;;1.10;1.00;;;29.00;1.00;;;;;;5089526;27;34163;-77
2022/07/16 08:31:11;;;;;;;1.35;0.90;;;29.20;1.00;;;;;;5123418;27;34406;-77
2022/07/16 08:33:37;;;;;;;5.10;1.00;;;29.50;1.00;;;;;;5102836;27;36445;-77
2022/07/16 08:36:04;;;;;;;5.75;1.20;;;29.80;1.00;;;;;;5109961;27;34187;-77
2022/07/16 08:38:30;;;;;;;1.38;1.08;;;30.00;1.00;;;;;;5148381;27;34138;-78
2022/07/16 08:40:56;;;;;;;1.90;1.00;;;30.10;1.00;;;;;;5058718;27;34120;-79
2022/07/16 08:43:23;;;;;;;1.38;0.90;;;30.10;1.00;;;;;;5045985;27;34095;-78
2022/07/16 08:45:51;;;;;;;2.60;0.98;;;30.00;1.00;;;;;;5094676;27;34364;-77
2022/07/16 08:48:17;;;;;;;3.05;1.00;;;29.80;1.00;;;;;;5128518;27;34099;-78
2022/07/16 08:50:45;;;;;;;4.30;0.98;;;29.60;1.00;;;;;;5142486;27;34287;-76
2022/07/16 08:53:11;;;;;;;2.78;1.08;;;29.70;1.00;;;;;;5042524;28;34958;-77
2022/07/16 08:55:40;;;;;;;1.85;1.00;;;29.60;1.00;;;;;;5146167;27;34270;-77
2022/07/16 08:58:08;;;;;;;3.38;1.05;;;29.80;1.00;;;;;;5133302;27;34307;-77
2022/07/16 09:00:35;;;;;;;4.82;1.00;;;30.00;1.00;;;;;;5029440;28;34245;-77
2022/07/16 09:03:01;;;;;;;2.45;0.90;;;30.00;1.00;;;;;;5098758;27;34483;-77
2022/07/16 09:05:26;;;;;;;1.80;1.00;;;30.10;1.00;;;;;;5113688;27;34558;-78
2022/07/16 09:07:53;;;;;;;2.28;1.00;;;30.40;1.00;;;;;;5107278;27;34123;-77
2022/07/16 09:10:19;;;;;;;1.00;0.90;;;30.60;1.00;;;;;;5087548;27;34324;-77
2022/07/16 09:12:47;;;;;;;0.95;0.90;;;30.80;1.00;;;;;;5117890;27;35946;-79
2022/07/16 09:15:24;;;;;;;1.63;1.10;;;31.00;1.00;;;;;;5108281;27;34210;-78
2022/07/16 09:18:10;;;;;;;1.30;0.85;;;31.20;1.00;;;;;;5128190;27;34209;-77
2022/07/16 09:20:38;;;;;;;2.92;1.10;;;31.30;1.00;;;;;;5139962;27;34054;-77
2022/07/16 09:23:04;;;;;;;2.75;1.00;;;31.00;1.00;;;;;;5064386;27;35523;-78
2022/07/16 09:25:54;;;;;;;1.55;0.90;;;31.00;1.00;;;;;;5102097;27;34371;-78
2022/07/16 09:28:22;;;;;;;1.83;1.00;;;31.00;1.00;;;;;;5105963;27;34246;-77
2022/07/16 09:30:48;;;;;;;2.85;1.17;;;30.60;1.00;;;;;;5136975;27;34162;-77
2022/07/16 09:33:18;;;;;;;1.15;0.90;;;30.10;1.00;;;;;;5097319;27;36294;-78
2022/07/16 09:36:04;;;;;;;2.78;0.98;;;29.80;1.00;;;;;;5125788;27;34141;-77
2022/07/16 09:38:44;;;;;;;2.22;1.10;;;29.80;1.00;;;;;;5085202;27;34336;-77
2022/07/16 09:41:13;;;;;;;1.02;0.70;;;29.90;1.00;;;;;;5135563;27;34844;-75
2022/07/16 09:43:42;;;;;;;2.75;1.05;;;30.00;1.00;;;;;;5116682;27;35931;-76
2022/07/16 09:46:08;;;;;;;1.02;0.93;;;30.30;1.00;;;;;;5103783;27;34283;-78
2022/07/16 09:48:35;;;;;;;1.00;0.90;;;30.60;1.00;;;;;;5092623;27;34395;-79
2022/07/16 09:51:21;;;;;;;3.00;1.00;;;30.90;1.00;;;;;;5108673;27;34224;-78
2022/07/16 09:53:53;;;;;;;0.90;0.90;;;31.10;1.00;;;;;;5117302;27;35988;-75
2022/07/16 09:56:25;;;;;;;1.77;1.10;;;30.70;1.00;;;;;;5137031;27;34457;-77
2022/07/16 09:58:54;;;;;;;2.30;0.88;;;30.30;1.00;;;;;;5106020;27;34101;-79
2022/07/16 10:01:21;;;;;;;4.40;0.98;;;30.20;1.00;;;;;;5151577;27;34231;-81
2022/07/16 10:03:48;;;;;;;2.75;1.00;;;30.20;1.00;;;;;;5069830;27;34607;-79
2022/07/16 10:06:15;;;;;;;0.93;0.90;;;30.40;1.00;;;;;;5051815;27;34097;-80
2022/07/16 10:08:43;;;;;;;2.15;1.00;;;30.60;1.00;;;;;;5144815;27;34452;-78
2022/07/16 10:11:10;;;;;;;1.60;0.90;;;30.90;1.00;;;;;;5097948;27;34131;-80
2022/07/16 10:13:40;;;;;;;1.15;0.98;;;31.10;1.00;;;;;;5119585;27;35591;-79
2022/07/16 10:16:06;;;;;;;6.45;1.10;;;31.40;1.00;;;;;;5115069;27;34179;-78
2022/07/16 10:18:36;;;;;;;2.35;1.10;;;31.50;1.00;;;;;;5124122;27;34155;-78
2022/07/16 10:21:13;;;;;;;0.93;0.80;;;31.60;1.00;;;;;;5084197;27;34830;-78
2022/07/16 10:23:42;;;;;;;2.53;1.02;;;32.10;1.00;;;;;;5106724;27;36076;-77
2022/07/16 10:26:16;;;;;;;1.88;1.00;;;32.10;1.00;;;;;;5125729;27;34446;-79
2022/07/16 10:28:45;;;;;;;2.97;1.00;;;31.80;1.00;;;;;;5151465;27;34422;-76
2022/07/16 10:31:40;;;;;;;0.80;0.80;;;31.40;1.00;;;;;;5056721;27;34253;-77
2022/07/16 10:34:31;;;;;;;1.30;1.05;;;31.20;1.00;;;;;;5134023;27;35798;-78
2022/07/16 10:36:56;;;;;;;0.80;0.80;;;31.40;1.00;;;;;;5036431;28;33844;-78
2022/07/16 10:39:25;;;;;;;1.42;0.98;;;31.60;1.00;;;;;;5131389;27;34272;-77
2022/07/16 10:41:55;;;;;;;1.17;0.80;;;31.50;1.00;;;;;;5129008;27;34123;-78
2022/07/16 10:44:23;;;;;;;0.80;0.80;;;31.30;1.00;;;;;;5066484;27;34299;-81
2022/07/16 10:47:00;;;;;;;1.67;1.00;;;31.00;1.00;;;;;;5091876;27;34241;-79
2022/07/16 10:49:29;;;;;;;3.85;1.10;;;30.70;1.00;;;;;;5112127;27;34222;-79
2022/07/16 10:51:59;;;;;;;4.63;1.00;;;30.70;1.00;;;;;;5114273;27;34073;-76
2022/07/16 10:54:28;;;;;;;1.40;0.93;;;31.00;1.00;;;;;;5092244;27;36626;-80
2022/07/16 10:56:56;;;;;;;1.58;0.90;;;31.20;1.00;;;;;;5102522;27;34439;-77
2022/07/16 10:59:46;;;;;;;1.98;1.00;;;31.00;1.00;;;;;;5136857;27;34442;-79
2022/07/16 11:02:15;;;;;;;2.17;1.23;;;30.80;1.00;;;;;;5140488;27;34188;-81
2022/07/16 11:04:48;;;;;;;4.03;0.93;;;30.40;1.00;;;;;;5109618;27;35832;-79
2022/07/16 11:07:17;;;;;;;0.93;0.90;;;30.10;1.00;;;;;;5108612;27;34225;-78
2022/07/16 11:09:46;;;;;;;1.15;0.98;;;30.00;1.00;;;;;;5106671;27;34303;-79
2022/07/16 11:12:16;;;;;;;2.30;1.17;;;30.40;1.00;;;;;;5121148;27;34343;-76
2022/07/16 11:14:43;;;;;;;1.58;0.80;;;30.70;1.00;;;;;;5118607;27;34548;-77
2022/07/16 11:17:11;;;;;;;1.63;0.95;;;30.70;1.00;;;;;;5131711;27;34169;-76
2022/07/16 11:19:41;;;;;;;0.88;0.88;;;30.60;1.00;;;;;;5116012;27;34136;-80
2022/07/16 11:22:07;;;;;;;4.85;1.17;;;30.20;1.00;;;;;;5119741;27;34580;-77
2022/07/16 11:24:34;;;;;;;2.58;1.33;;;30.00;1.00;;;;;;5121872;27;36830;-78
2022/07/16 11:27:01;;;;;;;2.47;1.02;;;30.00;1.00;;;;;;5145912;27;34710;-78
2022/07/16 11:29:28;;;;;;;3.85;0.90;;;30.10;1.00;;;;;;5104480;27;34605;-79
2022/07/16 11:31:56;;;;;;;2.70;1.00;;;30.00;1.00;;;;;;5119722;27;34361;-79
2022/07/16 11:34:22;;;;;;;1.27;1.00;;;29.90;1.00;;;;;;5040329;27;34936;-78
2022/07/16 11:36:52;;;;;;;1.38;0.85;;;30.10;1.00;;;;;;5038993;28;34158;-76
2022/07/16 11:39:21;;;;;;;1.98;0.90;;;30.20;1.00;;;;;;5119971;27;34287;-78
2022/07/16 11:41:51;;;;;;;2.85;1.05;;;30.40;1.00;;;;;;5069630;27;34444;-78
2022/07/16 11:44:20;;;;;;;1.20;0.93;;;30.20;1.00;;;;;;5122225;27;36413;-79
2022/07/16 11:46:51;;;;;;;1.50;0.93;;;30.30;1.00;;;;;;5094277;27;34105;-78
2022/07/16 11:49:35;;;;;;;1.02;1.00;;;30.40;1.00;;;;;;5103909;27;34316;-77
2022/07/16 11:52:04;;;;;;;2.03;1.10;;;30.40;1.00;;;;;;5094104;27;34228;-78
2022/07/16 11:54:37;;;;;;;1.00;1.00;;;30.20;1.00;;;;;;5116909;27;34137;-78
2022/07/16 11:57:14;;;;;;;3.10;0.70;;;30.20;1.00;;;;;;5130197;27;34312;-81
2022/07/16 11:59:48;;;;;;;3.97;1.23;;;30.30;1.00;;;;;;5163230;27;34237;-79
2022/07/16 12:02:21;;;;;;;1.83;0.85;;;30.40;1.00;;;;;;5157579;27;34696;-78
2022/07/16 12:04:53;;;;;;;8.05;0.95;;;30.50;1.00;;;;;;5109905;27;35881;-77
2022/07/16 12:07:36;;;;;;;2.22;1.08;;;30.70;1.00;;;;;;5112911;27;34307;-78
2022/07/16 12:10:07;;;;;;;2.97;1.08;;;30.60;1.00;;;;;;5154212;27;34308;-79
2022/07/16 12:12:36;;;;;;;2.20;0.90;;;30.50;1.00;;;;;;5117145;27;35599;-79
2022/07/16 12:15:07;;;;;;;1.55;1.10;;;30.50;1.00;;;;;;5123301;27;34474;-77
2022/07/16 12:18:17;;;;;;;1.58;1.00;;;30.60;1.00;;;;;;5125790;27;34215;-79
2022/07/16 12:20:45;;;;;;;1.40;1.00;;;30.90;1.00;;;;;;5121213;27;34592;-78
2022/07/16 12:23:14;;;;;;;3.05;1.17;;;31.10;1.00;;;;;;5127993;27;34269;-81
2022/07/16 12:25:45;;;;;;;2.03;1.15;;;31.00;1.00;;;;;;5132325;27;36810;-78
2022/07/16 12:28:22;;;;;;;0.90;0.90;;;30.90;1.00;;;;;;5130903;27;34403;-75
2022/07/16 12:30:54;;;;;;;1.30;1.00;;;30.50;1.00;;;;;;5169589;27;34177;-78
2022/07/16 12:33:26;;;;;;;2.03;1.20;;;30.20;1.00;;;;;;5149212;27;34267;-78
2022/07/16 12:36:05;;;;;;;2.40;1.40;;;30.10;1.00;;;;;;5131043;27;34881;-77
2022/07/16 12:39:02;;;;;;;1.05;1.02;;;29.90;1.00;;;;;;5160641;27;34538;-78
2022/07/16 12:41:36;;;;;;;4.97;1.33;;;30.10;1.00;;;;;;5157384;27;34350;-78
2022/07/16 12:44:06;;;;;;;2.65;1.20;;;30.40;1.00;;;;;;5143569;27;34538;-78
2022/07/16 12:46:37;;;;;;;1.30;1.00;;;30.60;1.00;;;;;;5143962;27;35541;-79
2022/07/16 12:49:08;;;;;;;4.10;1.08;;;30.70;1.00;;;;;;5144060;27;34876;-77
2022/07/16 12:51:38;;;;;;;1.27;0.77;;;30.90;1.00;;;;;;5114974;27;34652;-77
2022/07/16 12:54:05;;;;;;;1.05;1.02;;;30.90;1.00;;;;;;5145719;27;34264;-78
2022/07/16 12:59:14;;;;;;;1.90;1.17;;;30.60;1.00;;;;;;5127868;27;33763;-77
2022/07/16 13:01:41;;;;;;;1.85;1.27;;;30.30;1.00;;;;;;5133925;27;34363;-78
2022/07/16 13:04:09;;;;;;;1.77;1.40;;;30.10;1.00;;;;;;5130931;27;34375;-79
2022/07/16 13:06:36;;;;;;;2.13;1.10;;;30.00;1.00;;;;;;5131523;27;34425;-77
2022/07/16 13:09:04;;;;;;;2.38;1.05;;;30.20;1.00;;;;;;5125259;27;34453;-78
2022/07/16 13:11:30;;;;;;;1.17;1.08;;;30.40;1.00;;;;;;5113040;27;34143;-79